Pellston Regional Airport of Emmet County Airport
KPLN : now visible

Airfield :











YOU CAN JOIN US ON...

 
LOGIN :

Register | Disclaimer

   EN    FR    IT 

 









Legend :    VFR   Marginal VFR   IFR   Intensive IFR   Very Intensive IFR
Visi :
Ceiling :
>= 8 km
>= 3000ft
5 to 8 km
1000 to 3000 ft
1500m to 5 km
500 to 1000 ft
800 to 1500m
200 to 500 ft
< 800m
< 200 ft
Symbols :   Thunderstorms  Fog  Heavy snow  Heavy precipitations  Wind > 20 kt







- Airport Elevation : 721 ft
- IATA code : PLN


KPLN - Pellston Regional of Emmet County

CURRENT METAR :
  • 210154Z AUTO 00000KT 10SM CLR 05/M07 A2980 RMK AO2 SLP098 T00501067

EXPIRED METARs :
  • 210054Z AUTO 00000KT 10SM CLR 09/M07 A2979 RMK AO2 SLP094 T00891072
  • 202354Z AUTO 00000KT 10SM CLR 14/M12 A2978 RMK AO2 SLP088 T01441117 10167 20144 56006
  • 202254Z AUTO 10005KT 10SM CLR 16/M14 A2978 RMK AO2 SLP091 T01561139

TAF KPLN
Valid from the 21 at 00:00 until the 22 at 00:00 UTC


202329Z 2100/2124 00000KT P6SM SKC
FM211600 VRB03KT P6SM BKN120
KZMP FIR / North America



MET'MAP, your aeronautical weather chart ! - Copyright ORBIFLY December 2007 - Disclaimer

ORBIFLY MET'MAP TEAM :

Programming & Development : Alexandra Zaïnal
Concept & Development : Baudouin d'Aumeries
Co-Development & Prog : Marc-Olivier Méhu
Technical & hardware support : Manuel Goepfert

Contact : metmap@orbifly.com




SOURCES & CREDITS :

   NOAA       Earth
Advisory